sensor_id;sensor_type;location;lat;lon;timestamp;P1;durP1;ratioP1;P2;durP2;ratioP2
60908;SDS011;46780;48.128;-1.704;2023-01-28T00:00:52;20.27;;;9.65;;
60908;SDS011;46780;48.128;-1.704;2023-01-28T00:03:20;18.45;;;9.57;;
60908;SDS011;46780;48.128;-1.704;2023-01-28T00:05:46;18.00;;;9.57;;
60908;SDS011;46780;48.128;-1.704;2023-01-28T00:08:12;16.20;;;8.50;;
60908;SDS011;46780;48.128;-1.704;2023-01-28T00:10:39;16.88;;;9.13;;
60908;SDS011;46780;48.128;-1.704;2023-01-28T00:13:06;16.77;;;8.90;;
60908;SDS011;46780;48.128;-1.704;2023-01-28T00:15:32;18.25;;;8.50;;
60908;SDS011;46780;48.128;-1.704;2023-01-28T00:17:59;16.33;;;8.82;;
60908;SDS011;46780;48.128;-1.704;2023-01-28T00:20:27;17.25;;;8.75;;
60908;SDS011;46780;48.128;-1.704;2023-01-28T00:22:53;15.57;;;7.93;;
60908;SDS011;46780;48.128;-1.704;2023-01-28T00:25:20;16.73;;;7.45;;
60908;SDS011;46780;48.128;-1.704;2023-01-28T00:27:46;13.82;;;7.40;;
60908;SDS011;46780;48.128;-1.704;2023-01-28T00:30:14;15.85;;;8.10;;
60908;SDS011;46780;48.128;-1.704;2023-01-28T00:32:40;17.33;;;7.72;;
60908;SDS011;46780;48.128;-1.704;2023-01-28T00:35:07;13.95;;;7.15;;
60908;SDS011;46780;48.128;-1.704;2023-01-28T00:37:35;16.25;;;7.85;;
60908;SDS011;46780;48.128;-1.704;2023-01-28T00:40:01;12.80;;;7.28;;
60908;SDS011;46780;48.128;-1.704;2023-01-28T00:42:28;15.55;;;7.30;;
60908;SDS011;46780;48.128;-1.704;2023-01-28T00:44:54;15.38;;;7.32;;
60908;SDS011;46780;48.128;-1.704;2023-01-28T00:47:21;15.90;;;7.55;;
60908;SDS011;46780;48.128;-1.704;2023-01-28T00:49:47;18.00;;;7.63;;
60908;SDS011;46780;48.128;-1.704;2023-01-28T00:52:13;14.05;;;7.43;;
60908;SDS011;46780;48.128;-1.704;2023-01-28T00:54:41;13.85;;;7.18;;
60908;SDS011;46780;48.128;-1.704;2023-01-28T00:57:08;17.67;;;7.38;;
60908;SDS011;46780;48.128;-1.704;2023-01-28T00:59:34;13.95;;;6.57;;
60908;SDS011;46780;48.128;-1.704;2023-01-28T01:02:01;14.45;;;6.85;;
60908;SDS011;46780;48.128;-1.704;2023-01-28T01:04:27;16.00;;;6.63;;
60908;SDS011;46780;48.128;-1.704;2023-01-28T01:06:53;14.57;;;6.65;;
60908;SDS011;46780;48.128;-1.704;2023-01-28T01:09:20;13.60;;;6.68;;
60908;SDS011;46780;48.128;-1.704;2023-01-28T01:11:48;15.90;;;6.82;;
60908;SDS011;46780;48.128;-1.704;2023-01-28T01:14:14;17.35;;;6.85;;
60908;SDS011;46780;48.128;-1.704;2023-01-28T01:16:41;14.77;;;6.45;;
60908;SDS011;46780;48.128;-1.704;2023-01-28T01:19:07;14.13;;;6.05;;
60908;SDS011;46780;48.128;-1.704;2023-01-28T01:21:33;13.38;;;6.13;;
60908;SDS011;46780;48.128;-1.704;2023-01-28T01:24:00;13.82;;;6.07;;
60908;SDS011;46780;48.128;-1.704;2023-01-28T01:26:26;14.80;;;6.15;;
60908;SDS011;46780;48.128;-1.704;2023-01-28T01:28:54;12.70;;;6.20;;
60908;SDS011;46780;48.128;-1.704;2023-01-28T01:31:21;13.02;;;5.93;;
60908;SDS011;46780;48.128;-1.704;2023-01-28T01:33:48;14.82;;;5.57;;
60908;SDS011;46780;48.128;-1.704;2023-01-28T01:36:16;15.32;;;5.93;;
60908;SDS011;46780;48.128;-1.704;2023-01-28T01:38:43;11.82;;;5.35;;
60908;SDS011;46780;48.128;-1.704;2023-01-28T01:41:12;10.77;;;5.40;;
60908;SDS011;46780;48.128;-1.704;2023-01-28T01:43:49;12.20;;;4.97;;
60908;SDS011;46780;48.128;-1.704;2023-01-28T01:46:19;15.45;;;5.07;;
60908;SDS011;46780;48.128;-1.704;2023-01-28T01:48:49;10.02;;;4.60;;
60908;SDS011;46780;48.128;-1.704;2023-01-28T01:51:17;11.68;;;5.07;;
60908;SDS011;46780;48.128;-1.704;2023-01-28T01:53:48;13.70;;;4.40;;
60908;SDS011;46780;48.128;-1.704;2023-01-28T01:56:18;10.93;;;4.50;;
60908;SDS011;46780;48.128;-1.704;2023-01-28T01:58:49;14.50;;;4.65;;
60908;SDS011;46780;48.128;-1.704;2023-01-28T02:01:21;11.40;;;4.00;;
60908;SDS011;46780;48.128;-1.704;2023-01-28T02:03:54;11.18;;;4.10;;
60908;SDS011;46780;48.128;-1.704;2023-01-28T02:06:23;13.50;;;4.10;;
60908;SDS011;46780;48.128;-1.704;2023-01-28T02:08:52;15.32;;;4.10;;
60908;SDS011;46780;48.128;-1.704;2023-01-28T02:11:19;14.43;;;4.63;;
60908;SDS011;46780;48.128;-1.704;2023-01-28T02:13:48;10.85;;;4.05;;
60908;SDS011;46780;48.128;-1.704;2023-01-28T02:16:19;10.77;;;4.10;;
60908;SDS011;46780;48.128;-1.704;2023-01-28T02:18:47;11.23;;;4.68;;
60908;SDS011;46780;48.128;-1.704;2023-01-28T02:24:17;14.23;;;4.82;;
60908;SDS011;46780;48.128;-1.704;2023-01-28T02:27:01;13.80;;;4.40;;
60908;SDS011;46780;48.128;-1.704;2023-01-28T02:29:54;10.90;;;4.22;;
60908;SDS011;46780;48.128;-1.704;2023-01-28T02:32:24;11.43;;;4.03;;
60908;SDS011;46780;48.128;-1.704;2023-01-28T02:34:56;10.85;;;4.25;;
60908;SDS011;46780;48.128;-1.704;2023-01-28T02:39:58;13.02;;;4.50;;
60908;SDS011;46780;48.128;-1.704;2023-01-28T02:42:31;12.15;;;4.50;;
60908;SDS011;46780;48.128;-1.704;2023-01-28T02:45:02;10.70;;;4.57;;
60908;SDS011;46780;48.128;-1.704;2023-01-28T02:47:40;12.07;;;5.07;;
60908;SDS011;46780;48.128;-1.704;2023-01-28T02:50:07;13.02;;;5.30;;
60908;SDS011;46780;48.128;-1.704;2023-01-28T02:52:40;12.93;;;5.38;;
60908;SDS011;46780;48.128;-1.704;2023-01-28T02:55:15;12.95;;;5.13;;
60908;SDS011;46780;48.128;-1.704;2023-01-28T02:57:48;14.77;;;5.95;;
60908;SDS011;46780;48.128;-1.704;2023-01-28T03:00:24;11.35;;;5.93;;
60908;SDS011;46780;48.128;-1.704;2023-01-28T03:02:57;14.00;;;6.47;;
60908;SDS011;46780;48.128;-1.704;2023-01-28T03:05:30;12.93;;;6.47;;
60908;SDS011;46780;48.128;-1.704;2023-01-28T03:08:01;13.45;;;6.43;;
60908;SDS011;46780;48.128;-1.704;2023-01-28T03:10:29;12.15;;;6.78;;
60908;SDS011;46780;48.128;-1.704;2023-01-28T03:12:56;13.43;;;6.20;;
60908;SDS011;46780;48.128;-1.704;2023-01-28T03:15:26;15.18;;;6.47;;
60908;SDS011;46780;48.128;-1.704;2023-01-28T03:17:57;14.70;;;6.20;;
60908;SDS011;46780;48.128;-1.704;2023-01-28T03:20:28;12.35;;;5.78;;
60908;SDS011;46780;48.128;-1.704;2023-01-28T03:23:00;16.60;;;6.82;;
60908;SDS011;46780;48.128;-1.704;2023-01-28T03:25:32;14.02;;;6.30;;
60908;SDS011;46780;48.128;-1.704;2023-01-28T03:28:00;11.60;;;6.15;;
60908;SDS011;46780;48.128;-1.704;2023-01-28T03:30:33;12.93;;;6.25;;
60908;SDS011;46780;48.128;-1.704;2023-01-28T03:33:06;13.82;;;6.05;;
60908;SDS011;46780;48.128;-1.704;2023-01-28T03:35:33;12.68;;;6.03;;
60908;SDS011;46780;48.128;-1.704;2023-01-28T03:38:01;14.88;;;5.80;;
60908;SDS011;46780;48.128;-1.704;2023-01-28T03:40:29;12.15;;;5.60;;
60908;SDS011;46780;48.128;-1.704;2023-01-28T03:42:56;11.88;;;5.47;;
60908;SDS011;46780;48.128;-1.704;2023-01-28T03:45:22;13.20;;;5.53;;
60908;SDS011;46780;48.128;-1.704;2023-01-28T03:47:50;13.40;;;5.60;;
60908;SDS011;46780;48.128;-1.704;2023-01-28T03:50:16;13.10;;;5.40;;
60908;SDS011;46780;48.128;-1.704;2023-01-28T03:52:43;10.77;;;5.38;;
60908;SDS011;46780;48.128;-1.704;2023-01-28T03:55:09;13.65;;;5.68;;
60908;SDS011;46780;48.128;-1.704;2023-01-28T03:57:36;16.10;;;5.55;;
60908;SDS011;46780;48.128;-1.704;2023-01-28T04:00:02;12.55;;;5.28;;
60908;SDS011;46780;48.128;-1.704;2023-01-28T04:02:29;13.43;;;5.38;;
60908;SDS011;46780;48.128;-1.704;2023-01-28T04:04:57;13.52;;;5.45;;
60908;SDS011;46780;48.128;-1.704;2023-01-28T04:07:24;13.15;;;5.38;;
60908;SDS011;46780;48.128;-1.704;2023-01-28T04:09:50;14.35;;;5.30;;
60908;SDS011;46780;48.128;-1.704;2023-01-28T04:12:17;10.00;;;5.25;;
60908;SDS011;46780;48.128;-1.704;2023-01-28T04:14:43;11.98;;;4.95;;
60908;SDS011;46780;48.128;-1.704;2023-01-28T04:17:10;11.63;;;5.30;;
60908;SDS011;46780;48.128;-1.704;2023-01-28T04:19:36;11.80;;;5.68;;
60908;SDS011;46780;48.128;-1.704;2023-01-28T04:22:05;11.40;;;5.63;;
60908;SDS011;46780;48.128;-1.704;2023-01-28T04:24:35;11.23;;;5.70;;
60908;SDS011;46780;48.128;-1.704;2023-01-28T04:27:01;12.82;;;5.95;;
60908;SDS011;46780;48.128;-1.704;2023-01-28T04:29:28;12.90;;;5.88;;
60908;SDS011;46780;48.128;-1.704;2023-01-28T04:31:54;12.23;;;5.90;;
60908;SDS011;46780;48.128;-1.704;2023-01-28T04:34:21;11.27;;;5.43;;
60908;SDS011;46780;48.128;-1.704;2023-01-28T04:36:47;10.85;;;5.18;;
60908;SDS011;46780;48.128;-1.704;2023-01-28T04:39:15;16.13;;;5.80;;
60908;SDS011;46780;48.128;-1.704;2023-01-28T04:41:41;12.48;;;5.47;;
60908;SDS011;46780;48.128;-1.704;2023-01-28T04:44:08;11.27;;;5.72;;
60908;SDS011;46780;48.128;-1.704;2023-01-28T04:46:34;11.95;;;5.78;;
60908;SDS011;46780;48.128;-1.704;2023-01-28T04:49:01;12.77;;;5.95;;
60908;SDS011;46780;48.128;-1.704;2023-01-28T04:51:28;12.95;;;5.40;;
60908;SDS011;46780;48.128;-1.704;2023-01-28T04:53:54;11.38;;;5.60;;
60908;SDS011;46780;48.128;-1.704;2023-01-28T04:56:22;11.68;;;5.57;;
60908;SDS011;46780;48.128;-1.704;2023-01-28T04:58:48;12.48;;;6.00;;
60908;SDS011;46780;48.128;-1.704;2023-01-28T05:01:15;12.90;;;5.88;;
60908;SDS011;46780;48.128;-1.704;2023-01-28T05:03:41;10.98;;;5.63;;
60908;SDS011;46780;48.128;-1.704;2023-01-28T05:06:08;10.95;;;5.75;;
60908;SDS011;46780;48.128;-1.704;2023-01-28T05:08:34;13.20;;;5.80;;
60908;SDS011;46780;48.128;-1.704;2023-01-28T05:11:00;12.30;;;5.88;;
60908;SDS011;46780;48.128;-1.704;2023-01-28T05:13:28;15.63;;;6.32;;
60908;SDS011;46780;48.128;-1.704;2023-01-28T05:15:55;12.52;;;6.25;;
60908;SDS011;46780;48.128;-1.704;2023-01-28T05:18:21;13.60;;;5.88;;
60908;SDS011;46780;48.128;-1.704;2023-01-28T05:20:48;13.27;;;6.57;;
60908;SDS011;46780;48.128;-1.704;2023-01-28T05:23:14;13.05;;;6.28;;
60908;SDS011;46780;48.128;-1.704;2023-01-28T05:25:41;9.88;;;6.22;;
60908;SDS011;46780;48.128;-1.704;2023-01-28T05:28:07;13.23;;;6.75;;
60908;SDS011;46780;48.128;-1.704;2023-01-28T05:30:36;15.15;;;6.88;;
60908;SDS011;46780;48.128;-1.704;2023-01-28T05:33:02;12.15;;;6.65;;
60908;SDS011;46780;48.128;-1.704;2023-01-28T05:35:29;13.75;;;6.50;;
60908;SDS011;46780;48.128;-1.704;2023-01-28T05:37:55;15.65;;;6.97;;
60908;SDS011;46780;48.128;-1.704;2023-01-28T05:40:22;14.23;;;6.72;;
60908;SDS011;46780;48.128;-1.704;2023-01-28T05:42:48;13.48;;;6.93;;
60908;SDS011;46780;48.128;-1.704;2023-01-28T05:45:15;16.40;;;6.57;;
60908;SDS011;46780;48.128;-1.704;2023-01-28T05:47:43;11.95;;;6.55;;
60908;SDS011;46780;48.128;-1.704;2023-01-28T05:50:09;13.60;;;7.30;;
60908;SDS011;46780;48.128;-1.704;2023-01-28T05:52:38;14.43;;;6.88;;
60908;SDS011;46780;48.128;-1.704;2023-01-28T05:55:05;14.45;;;6.63;;
60908;SDS011;46780;48.128;-1.704;2023-01-28T05:57:32;16.10;;;6.82;;
60908;SDS011;46780;48.128;-1.704;2023-01-28T05:59:58;12.15;;;6.45;;
60908;SDS011;46780;48.128;-1.704;2023-01-28T06:02:25;12.77;;;6.95;;
60908;SDS011;46780;48.128;-1.704;2023-01-28T06:04:53;12.20;;;6.55;;
60908;SDS011;46780;48.128;-1.704;2023-01-28T06:07:19;13.27;;;6.60;;
60908;SDS011;46780;48.128;-1.704;2023-01-28T06:09:46;14.98;;;7.30;;
60908;SDS011;46780;48.128;-1.704;2023-01-28T06:12:12;12.23;;;6.60;;
60908;SDS011;46780;48.128;-1.704;2023-01-28T06:14:39;13.65;;;6.65;;
60908;SDS011;46780;48.128;-1.704;2023-01-28T06:17:05;13.85;;;7.03;;
60908;SDS011;46780;48.128;-1.704;2023-01-28T06:19:32;15.25;;;7.28;;
60908;SDS011;46780;48.128;-1.704;2023-01-28T06:22:00;12.43;;;6.88;;
60908;SDS011;46780;48.128;-1.704;2023-01-28T06:24:26;16.88;;;7.47;;
60908;SDS011;46780;48.128;-1.704;2023-01-28T06:26:53;14.07;;;7.43;;
60908;SDS011;46780;48.128;-1.704;2023-01-28T06:29:19;13.98;;;7.07;;
60908;SDS011;46780;48.128;-1.704;2023-01-28T06:31:45;12.70;;;7.05;;
60908;SDS011;46780;48.128;-1.704;2023-01-28T06:34:12;15.95;;;7.18;;
60908;SDS011;46780;48.128;-1.704;2023-01-28T06:36:38;15.73;;;7.53;;
60908;SDS011;46780;48.128;-1.704;2023-01-28T06:39:06;14.20;;;7.05;;
60908;SDS011;46780;48.128;-1.704;2023-01-28T06:41:33;15.02;;;7.60;;
60908;SDS011;46780;48.128;-1.704;2023-01-28T06:43:59;13.90;;;6.97;;
60908;SDS011;46780;48.128;-1.704;2023-01-28T06:46:26;16.63;;;8.00;;
60908;SDS011;46780;48.128;-1.704;2023-01-28T06:48:52;16.30;;;7.38;;
60908;SDS011;46780;48.128;-1.704;2023-01-28T06:51:19;16.73;;;7.72;;
60908;SDS011;46780;48.128;-1.704;2023-01-28T06:53:45;16.38;;;8.00;;
60908;SDS011;46780;48.128;-1.704;2023-01-28T06:56:13;12.65;;;7.22;;
60908;SDS011;46780;48.128;-1.704;2023-01-28T06:58:39;12.93;;;7.78;;
60908;SDS011;46780;48.128;-1.704;2023-01-28T07:01:06;14.13;;;7.57;;
60908;SDS011;46780;48.128;-1.704;2023-01-28T07:03:32;12.18;;;7.80;;
60908;SDS011;46780;48.128;-1.704;2023-01-28T07:05:59;13.43;;;7.50;;
60908;SDS011;46780;48.128;-1.704;2023-01-28T07:08:25;14.18;;;8.00;;
60908;SDS011;46780;48.128;-1.704;2023-01-28T07:10:52;16.98;;;8.93;;
60908;SDS011;46780;48.128;-1.704;2023-01-28T07:13:19;14.88;;;8.30;;
60908;SDS011;46780;48.128;-1.704;2023-01-28T07:15:46;15.82;;;8.30;;
60908;SDS011;46780;48.128;-1.704;2023-01-28T07:18:12;17.27;;;9.02;;
60908;SDS011;46780;48.128;-1.704;2023-01-28T07:20:39;13.15;;;8.52;;
60908;SDS011;46780;48.128;-1.704;2023-01-28T07:23:05;14.40;;;8.50;;
60908;SDS011;46780;48.128;-1.704;2023-01-28T07:25:32;16.20;;;8.73;;
60908;SDS011;46780;48.128;-1.704;2023-01-28T07:27:58;16.33;;;9.48;;
60908;SDS011;46780;48.128;-1.704;2023-01-28T07:30:26;14.70;;;8.73;;
60908;SDS011;46780;48.128;-1.704;2023-01-28T07:32:53;18.70;;;9.30;;
60908;SDS011;46780;48.128;-1.704;2023-01-28T07:35:21;15.95;;;8.80;;
60908;SDS011;46780;48.128;-1.704;2023-01-28T07:37:51;16.17;;;8.85;;
60908;SDS011;46780;48.128;-1.704;2023-01-28T07:40:19;16.75;;;9.80;;
60908;SDS011;46780;48.128;-1.704;2023-01-28T07:42:45;17.50;;;9.45;;
60908;SDS011;46780;48.128;-1.704;2023-01-28T07:45:12;14.90;;;9.05;;
60908;SDS011;46780;48.128;-1.704;2023-01-28T07:47:41;16.38;;;8.98;;
60908;SDS011;46780;48.128;-1.704;2023-01-28T07:50:08;16.98;;;9.63;;
60908;SDS011;46780;48.128;-1.704;2023-01-28T07:52:36;14.57;;;9.40;;
60908;SDS011;46780;48.128;-1.704;2023-01-28T07:55:03;15.50;;;9.50;;
60908;SDS011;46780;48.128;-1.704;2023-01-28T07:57:30;19.35;;;10.13;;
